Shaoxing, China
Current Conditions -  °F | °C
As of 3:00 AM on Tuesday 23 Dec 2014 (Local Time) from ZSHC Reporting Station
Haze Haze  
Wind Chill: 37°   Ceiling: Unl
Heat Index: 37°   Visibility: 3mi
Dew Point: 19°   Wind: 2mph
Humidity: 48%   Direction: NA
Pressure: 30.33"   Gusts: NA
Location:  30°N, 120.57°E
Report Text: ZSHC 221900Z VRB01MPS 5000 HZ NSC 03/M07 Q1027 NOSIG
Loading
Personal Weather Stations






























Interactive Weather Map New forecast layout! Learn more

10-Day Weather Forecast

Advertisements
Track Severe Weather on mobile